Time;durP1;ratioP1;P1;durP2;ratioP2;P2;SDS_P1;SDS_P2;PMS_P1;PMS_P2;Temp;Humidity;BMP_temperature;BMP_pressure;BME280_temperature;BME280_humidity;BME280_pressure;Samples;Min_cycle;Max_cycle;Signal;HPM_P1;HPM_P2
2022/04/15 00:01:23;;;;;;;41.77;21.48;;;;;;;13.23;57.89;99267.05;1708168;83;20991;-35
2022/04/15 00:03:50;;;;;;;36.17;21.65;;;;;;;13.22;57.76;99270.63;1688052;84;21034;-38
2022/04/15 00:06:20;;;;;;;37.98;20.52;;;;;;;13.14;59.47;99273.79;1708321;82;21554;-36
2022/04/15 00:08:47;;;;;;;37.15;20.37;;;;;;;13.21;57.42;99275.08;1708149;83;21006;-37
2022/04/15 00:11:14;;;;;;;38.65;20.95;;;;;;;13.22;57.18;99274.14;1708380;83;20963;-37
2022/04/15 00:13:41;;;;;;;36.43;20.53;;;;;;;13.19;58.24;99272.17;1708468;83;20999;-37
2022/04/15 00:16:08;;;;;;;37.53;20.17;;;;;;;13.21;57.77;99271.59;1708288;83;21249;-36
2022/04/15 00:18:35;;;;;;;37.85;20.05;;;;;;;13.17;59.03;99272.27;1708272;84;20999;-37
2022/04/15 00:21:01;;;;;;;33.65;20.50;;;;;;;13.17;58.03;99270.95;1708277;84;20963;-36
2022/04/15 00:23:28;;;;;;;36.75;20.60;;;;;;;13.13;58.78;99264.64;1708234;82;21026;-37
2022/04/15 00:25:55;;;;;;;36.60;20.77;;;;;;;13.12;58.46;99273.53;1708096;84;20991;-37
2022/04/15 00:28:22;;;;;;;41.33;20.37;;;;;;;13.12;59.49;99284.09;1708435;83;21491;-36
2022/04/15 00:30:48;;;;;;;31.70;18.67;;;;;;;13.14;58.44;99286.98;1708273;83;21288;-35
2022/04/15 00:33:14;;;;;;;33.75;18.05;;;;;;;13.14;58.75;99284.83;1708151;82;20995;-35
2022/04/15 00:35:40;;;;;;;35.03;20.57;;;;;;;13.10;58.70;99271.44;1708173;83;21023;-36
2022/04/15 00:38:06;;;;;;;32.23;20.15;;;;;;;13.07;58.78;99272.50;1708141;83;20975;-37
2022/04/15 00:40:33;;;;;;;38.38;22.07;;;;;;;12.99;59.60;99282.73;1708107;83;21030;-36
2022/04/15 00:43:00;;;;;;;36.75;21.15;;;;;;;12.95;61.29;99274.62;1708196;84;20999;-36
2022/04/15 00:45:26;;;;;;;38.53;22.05;;;;;;;12.94;60.81;99276.42;1708106;84;20991;-36
2022/04/15 00:47:56;;;;;;;40.52;22.13;;;;;;;12.96;59.86;99268.41;1715750;83;21029;-36
2022/04/15 00:50:32;;;;;;;37.17;22.20;;;;;;;12.87;61.40;99271.16;1726256;82;20989;-37
2022/04/15 00:53:01;;;;;;;39.35;21.30;;;;;;;12.83;60.80;99268.36;1726207;82;21002;-37
2022/04/15 00:55:28;;;;;;;34.50;21.42;;;;;;;12.85;60.89;99265.14;1726231;83;21006;-37
2022/04/15 00:58:02;;;;;;;41.10;21.00;;;;;;;12.78;61.61;99271.77;1726420;83;20974;-37
2022/04/15 01:00:31;;;;;;;39.60;21.73;;;;;;;12.79;60.80;99277.43;1726280;82;21070;-36
2022/04/15 01:03:00;;;;;;;42.90;21.82;;;;;;;12.77;60.25;99285.89;1726240;82;20990;-37
2022/04/15 01:05:27;;;;;;;38.73;22.17;;;;;;;12.79;60.33;99291.47;1726223;83;20958;-37
2022/04/15 01:07:56;;;;;;;38.30;23.27;;;;;;;12.68;60.94;99278.95;1726395;83;21817;-37
2022/04/15 01:10:26;;;;;;;44.13;22.20;;;;;;;12.61;61.36;99277.66;1726323;82;21033;-37
2022/04/15 01:12:56;;;;;;;41.58;22.90;;;;;;;12.65;60.72;99286.22;1726270;82;21546;-36
2022/04/15 01:15:25;;;;;;;41.20;22.73;;;;;;;12.60;61.02;99282.55;1726054;83;20990;-36
2022/04/15 01:17:51;;;;;;;46.37;23.55;;;;;;;12.58;60.64;99276.52;1726205;82;21055;-36
2022/04/15 01:20:18;;;;;;;41.95;23.85;;;;;;;12.51;61.48;99275.22;1726226;83;21037;-36
2022/04/15 01:22:47;;;;;;;42.48;22.65;;;;;;;12.50;61.32;99268.27;1697685;83;21049;-36
2022/04/15 01:25:16;;;;;;;42.55;22.48;;;;;;;12.51;60.79;99275.22;1726232;82;21009;-36
2022/04/15 01:27:45;;;;;;;41.20;22.52;;;;;;;12.46;61.08;99275.53;1726145;83;21539;-36
2022/04/15 01:30:18;;;;;;;39.88;21.80;;;;;;;12.45;61.37;99280.89;1726242;82;21510;-35
2022/04/15 01:32:44;;;;;;;39.55;22.60;;;;;;;12.44;61.08;99286.65;1725069;82;20963;-38
2022/04/15 01:35:13;;;;;;;36.73;22.05;;;;;;;12.40;61.78;99284.29;1726276;83;21518;-40
2022/04/15 01:37:40;;;;;;;40.52;23.05;;;;;;;12.41;61.43;99291.27;1726257;83;21014;-37
2022/04/15 01:40:09;;;;;;;35.88;21.80;;;;;;;12.39;61.62;99284.77;1726539;83;21041;-38
2022/04/15 01:42:37;;;;;;;38.30;21.55;;;;;;;12.42;61.08;99282.40;1726213;82;21038;-38
2022/04/15 01:45:05;;;;;;;40.50;23.60;;;;;;;12.43;61.38;99278.83;1726423;82;20994;-38
2022/04/15 01:47:31;;;;;;;38.08;22.45;;;;;;;12.40;61.07;99282.48;1726158;83;21018;-38
2022/04/15 01:49:57;;;;;;;42.73;22.82;;;;;;;12.42;61.13;99291.63;1726314;83;21483;-36
2022/04/15 01:52:23;;;;;;;39.38;23.87;;;;;;;12.41;61.01;99280.23;1726252;83;21045;-38
2022/04/15 01:54:49;;;;;;;40.55;22.95;;;;;;;12.34;61.85;99275.45;1726224;83;21098;-37
2022/04/15 01:57:15;;;;;;;40.75;22.55;;;;;;;12.35;61.77;99281.95;1726228;82;20986;-36
2022/04/15 01:59:42;;;;;;;36.17;22.57;;;;;;;12.34;62.16;99282.05;1726448;82;20989;-37
2022/04/15 02:02:09;;;;;;;44.05;23.32;;;;;;;12.39;61.21;99275.54;1726513;83;21069;-40
2022/04/15 02:04:35;;;;;;;39.63;23.33;;;;;;;12.34;61.34;99272.81;1726457;83;21025;-37
2022/04/15 02:07:02;;;;;;;39.13;22.95;;;;;;;12.37;61.63;99268.65;1726212;83;21006;-37
2022/04/15 02:09:28;;;;;;;38.28;23.22;;;;;;;12.39;61.74;99268.11;1726462;83;20970;-37
2022/04/15 02:11:54;;;;;;;38.90;22.67;;;;;;;12.32;63.07;99272.07;1726194;82;20994;-38
2022/04/15 02:14:21;;;;;;;38.67;22.70;;;;;;;12.36;61.78;99266.97;1726164;83;20986;-37
2022/04/15 02:16:48;;;;;;;36.03;21.43;;;;;;;12.39;61.60;99270.75;1726455;82;21001;-37
2022/04/15 02:19:14;;;;;;;38.30;22.73;;;;;;;12.38;62.71;99266.40;1726417;83;21033;-36
2022/04/15 02:21:40;;;;;;;35.15;22.07;;;;;;;12.37;61.68;99269.52;1726213;82;20989;-36
2022/04/15 02:24:06;;;;;;;39.35;23.20;;;;;;;12.40;62.02;99260.55;1726202;83;20994;-36
2022/04/15 02:26:33;;;;;;;38.92;21.97;;;;;;;12.45;62.15;99271.66;1726155;83;21146;-38
2022/04/15 02:28:59;;;;;;;40.90;23.33;;;;;;;12.46;61.67;99266.30;1726449;83;21068;-37
2022/04/15 02:31:27;;;;;;;38.02;23.80;;;;;;;12.48;61.51;99262.25;1726243;82;20996;-37
2022/04/15 02:33:53;;;;;;;;;;;;;;;12.47;61.41;99259.22;1728801;83;21021;-37
2022/04/15 02:36:18;;;;;;;37.10;22.30;;;;;;;12.44;62.23;99270.83;1726220;83;20402;-37
2022/04/15 02:38:44;;;;;;;45.08;23.83;;;;;;;12.44;61.32;99275.23;1726247;83;21032;-36
2022/04/15 02:43:35;;;;;;;38.60;23.25;;;;;;;12.43;61.93;99268.28;1800107;79;23076;-35
2022/04/15 02:46:06;;;;;;;37.83;22.85;;;;;;;12.40;61.66;99272.42;1761847;81;21020;-35
2022/04/15 02:48:33;;;;;;;37.50;21.17;;;;;;;12.36;62.24;99269.61;1761733;80;21003;-36
2022/04/15 02:51:00;;;;;;;40.20;23.25;;;;;;;12.37;61.52;99269.52;1761898;80;21055;-36
2022/04/15 02:53:26;;;;;;;43.83;22.82;;;;;;;12.29;62.13;99273.93;1762211;80;20968;-35
2022/04/15 02:55:53;;;;;;;36.88;22.55;;;;;;;12.26;62.62;99270.19;1761838;80;20995;-35
2022/04/15 02:58:20;;;;;;;34.43;22.33;;;;;;;12.27;61.87;99267.91;1762034;81;21031;-36
2022/04/15 03:00:48;;;;;;;39.60;22.33;;;;;;;12.29;62.30;99277.05;1761848;81;21507;-35
2022/04/15 03:03:14;;;;;;;39.25;22.73;;;;;;;12.28;62.74;99288.08;1761704;81;21050;-35
2022/04/15 03:05:41;;;;;;;44.23;23.07;;;;;;;12.31;62.51;99284.87;1761708;81;20990;-34
2022/04/15 03:08:08;;;;;;;42.75;22.35;;;;;;;12.31;63.18;99287.02;1761892;81;21574;-36
2022/04/15 03:10:34;;;;;;;36.20;21.67;;;;;;;12.31;62.24;99292.78;1762023;81;21456;-36
2022/04/15 03:13:00;;;;;;;38.83;22.40;;;;;;;12.31;62.24;99292.78;1761828;80;22004;-35
2022/04/15 03:15:26;;;;;;;43.90;23.75;;;;;;;12.26;62.89;99293.05;1761704;81;20987;-36
2022/04/15 03:17:52;;;;;;;42.50;24.60;;;;;;;12.23;63.02;99301.17;1761730;80;20987;-35
2022/04/15 03:20:18;;;;;;;45.43;24.30;;;;;;;12.26;62.84;99302.28;1761744;81;20964;-36
2022/04/15 03:22:45;;;;;;;42.00;22.90;;;;;;;12.20;63.88;99299.55;1761704;80;20991;-35
2022/04/15 03:25:15;;;;;;;44.23;24.98;;;;;;;12.17;63.73;99306.80;1761887;81;21003;-35
2022/04/15 03:27:41;;;;;;;38.45;24.05;;;;;;;12.10;63.68;99307.20;1761838;80;21022;-36
2022/04/15 03:30:07;;;;;;;49.27;25.80;;;;;;;12.12;62.79;99304.47;1761805;81;21031;-36
2022/04/15 03:32:34;;;;;;;47.65;24.63;;;;;;;12.15;62.98;99304.29;1761717;81;20991;-36
2022/04/15 03:34:59;;;;;;;44.90;25.77;;;;;;;12.15;63.18;99308.24;1762097;81;21507;-36
2022/04/15 03:37:26;;;;;;;40.12;23.95;;;;;;;12.15;63.66;99314.84;1761764;80;20991;-34
2022/04/15 03:39:52;;;;;;;38.50;24.40;;;;;;;12.10;64.00;99308.52;1761837;81;21045;-36
2022/04/15 03:42:18;;;;;;;44.75;23.52;;;;;;;12.04;65.25;99309.34;1756438;81;21016;-35
2022/04/15 03:44:45;;;;;;;43.10;25.20;;;;;;;12.08;63.79;99307.77;1748869;81;20991;-36
2022/04/15 03:47:11;;;;;;;41.42;24.07;;;;;;;12.07;63.89;99310.01;1748954;81;21477;-36
2022/04/15 03:49:37;;;;;;;50.05;23.18;;;;;;;12.08;64.31;99313.52;1748713;81;21028;-36
2022/04/15 03:52:04;;;;;;;41.92;23.73;;;;;;;12.00;66.10;99317.08;1748743;81;20995;-37
2022/04/15 03:54:29;;;;;;;45.00;23.13;;;;;;;11.99;66.21;99312.28;1748467;82;21030;-36
2022/04/15 03:56:55;;;;;;;47.13;23.12;;;;;;;11.99;66.21;99312.28;1748138;81;21307;-37
2022/04/15 03:59:21;;;;;;;38.38;22.32;;;;;;;12.02;65.70;99309.91;1748069;81;21000;-37
2022/04/15 04:01:47;;;;;;;38.67;23.70;;;;;;;12.04;67.08;99313.30;1748046;81;21434;-35
2022/04/15 04:04:12;;;;;;;44.95;24.67;;;;;;;12.08;65.94;99316.15;1748174;81;20992;-37
2022/04/15 04:06:39;;;;;;;39.45;23.42;;;;;;;12.04;66.77;99322.52;1748143;81;21507;-36
2022/04/15 04:09:05;;;;;;;37.83;22.58;;;;;;;12.06;67.08;99325.91;1748138;81;21603;-35
2022/04/15 04:11:30;;;;;;;37.30;21.77;;;;;;;12.01;69.02;99324.05;1748077;81;21023;-36
2022/04/15 04:13:56;;;;;;;36.80;22.70;;;;;;;11.89;70.04;99329.06;1748077;81;20983;-37
2022/04/15 04:16:22;;;;;;;35.00;21.07;;;;;;;11.86;68.55;99329.27;1748071;81;21026;-36
2022/04/15 04:18:47;;;;;;;35.63;21.45;;;;;;;11.69;72.17;99332.05;1748102;81;20968;-36
2022/04/15 04:21:13;;;;;;;37.95;22.17;;;;;;;11.56;73.99;99334.56;1748212;81;21002;-35
2022/04/15 04:23:39;;;;;;;41.00;22.30;;;;;;;11.47;74.52;99334.62;1748077;81;21007;-37
2022/04/15 04:26:05;;;;;;;35.85;21.30;;;;;;;11.40;74.65;99338.55;1748074;81;21055;-36
2022/04/15 04:28:32;;;;;;;39.78;21.30;;;;;;;11.37;77.02;99334.80;1748116;81;21004;-37
2022/04/15 04:30:58;;;;;;;34.08;21.77;;;;;;;11.33;77.82;99334.58;1748308;81;21477;-37
2022/04/15 04:33:25;;;;;;;37.73;21.20;;;;;;;11.34;76.99;99337.13;1748111;81;20960;-35
2022/04/15 04:35:51;;;;;;;30.15;20.72;;;;;;;11.36;77.42;99334.88;1748056;81;21031;-36
2022/04/15 04:38:17;;;;;;;36.83;20.88;;;;;;;11.35;81.12;99331.41;1748040;81;20964;-36
2022/04/15 04:40:45;;;;;;;35.05;20.23;;;;;;;11.34;83.18;99333.65;1748036;82;21038;-36
2022/04/15 04:43:11;;;;;;;33.38;19.82;;;;;;;11.38;82.11;99334.33;1756824;81;21003;-35
2022/04/15 04:45:38;;;;;;;32.40;19.35;;;;;;;11.41;81.56;99336.31;1761382;81;20995;-36
2022/04/15 04:48:05;;;;;;;29.52;18.67;;;;;;;11.41;83.52;99340.26;1761365;81;20998;-36
2022/04/15 04:50:32;;;;;;;29.87;19.32;;;;;;;11.44;82.24;99349.31;1761488;81;20991;-37
2022/04/15 04:52:59;;;;;;;30.40;19.82;;;;;;;11.48;81.02;99344.71;1761460;81;20995;-37
2022/04/15 04:55:24;;;;;;;29.57;19.17;;;;;;;11.53;81.13;99346.58;1761575;81;21030;-36
2022/04/15 04:57:51;;;;;;;34.55;19.05;;;;;;;11.58;81.17;99343.70;1761467;80;21385;-36
2022/04/15 05:00:18;;;;;;;31.15;17.10;;;;;;;11.61;82.98;99347.47;1761515;80;21417;-36
2022/04/15 05:02:45;;;;;;;24.35;17.70;;;;;;;11.61;82.56;99344.84;1761580;81;21484;-37
2022/04/15 05:05:12;;;;;;;25.80;16.73;;;;;;;11.61;81.68;99346.16;1761459;81;20999;-36
2022/04/15 05:07:38;;;;;;;25.72;16.95;;;;;;;11.61;85.63;99343.05;1761501;81;21050;-37
2022/04/15 05:10:08;;;;;;;23.65;16.55;;;;;;;11.64;86.67;99343.32;1761328;80;21516;-36
2022/04/15 05:12:34;;;;;;;22.77;14.70;;;;;;;11.68;86.53;99336.48;1761376;81;20988;-35
2022/04/15 05:14:59;;;;;;;21.45;15.03;;;;;;;11.72;87.40;99329.24;1761458;80;21469;-35
2022/04/15 05:17:25;;;;;;;23.42;16.15;;;;;;;11.79;85.53;99330.58;1761445;81;20995;-36
2022/04/15 05:19:51;;;;;;;20.80;15.25;;;;;;;11.78;84.50;99324.91;1761359;81;21026;-35
2022/04/15 05:22:18;;;;;;;22.37;14.28;;;;;;;11.82;86.22;99319.83;1761359;81;20979;-35
2022/04/15 05:24:44;;;;;;;23.18;14.33;;;;;;;11.87;87.35;99320.89;1761527;80;21106;-36
2022/04/15 05:27:10;;;;;;;17.80;13.43;;;;;;;11.89;86.79;99330.38;1761464;80;21026;-36
2022/04/15 05:29:36;;;;;;;23.30;14.28;;;;;;;11.90;85.68;99339.19;1761428;81;20964;-36
2022/04/15 05:32:03;;;;;;;18.23;13.35;;;;;;;11.91;85.30;99335.59;1761413;81;21046;-36
2022/04/15 05:34:29;;;;;;;22.50;13.70;;;;;;;11.89;86.66;99337.45;1761494;81;21031;-36
2022/04/15 05:36:55;;;;;;;18.82;13.35;;;;;;;11.90;85.01;99336.56;1761315;81;21018;-36
2022/04/15 05:39:20;;;;;;;19.90;14.28;;;;;;;11.84;87.48;99339.06;1761282;81;21010;-36
2022/04/15 05:41:46;;;;;;;22.52;14.83;;;;;;;11.90;85.97;99343.14;1761314;81;20996;-37
2022/04/15 05:44:13;;;;;;;24.52;15.05;;;;;;;11.90;85.46;99336.56;1748569;81;21012;-36
2022/04/15 05:46:42;;;;;;;19.55;14.47;;;;;;;11.94;85.61;99348.59;1748096;81;20984;-38
2022/04/15 05:49:13;;;;;;;20.23;14.73;;;;;;;11.92;85.82;99345.69;1747901;81;21015;-36
2022/04/15 05:51:36;;;;;;;17.15;14.90;;;;;;;11.99;86.19;99348.30;1747709;81;21450;-37
2022/04/15 05:54:02;;;;;;;19.15;15.55;;;;;;;12.01;86.30;99351.72;1747920;81;21027;-37
2022/04/15 05:56:27;;;;;;;19.27;15.45;;;;;;;12.02;84.12;99350.77;1747996;82;20972;-36
2022/04/15 05:58:53;;;;;;;22.17;17.07;;;;;;;11.98;84.51;99351.91;1748033;81;21047;-36
2022/04/15 06:01:19;;;;;;;22.05;17.42;;;;;;;11.99;86.05;99357.53;1747925;81;21035;-36
2022/04/15 06:03:45;;;;;;;21.60;17.73;;;;;;;12.01;86.55;99355.68;1747974;81;20988;-37
2022/04/15 06:06:11;;;;;;;25.20;17.75;;;;;;;12.00;85.27;99355.29;1747946;81;20992;-36
2022/04/15 06:08:37;;;;;;;27.67;16.93;;;;;;;11.95;87.03;99362.62;1748003;81;20987;-36
2022/04/15 06:11:03;;;;;;;18.92;15.70;;;;;;;11.94;87.10;99359.14;1747979;81;21031;-36
2022/04/15 06:13:29;;;;;;;28.92;16.85;;;;;;;11.96;84.98;99364.33;1747931;81;21044;-36
2022/04/15 06:15:58;;;;;;;23.37;17.33;;;;;;;11.88;88.38;99355.53;1748190;81;21034;-36
2022/04/15 06:18:26;;;;;;;25.45;18.80;;;;;;;11.85;88.00;99361.81;1748059;81;21006;-37
2022/04/15 06:20:52;;;;;;;31.62;19.50;;;;;;;11.82;87.44;99358.52;1747918;81;21027;-35
2022/04/15 06:23:20;;;;;;;30.10;21.27;;;;;;;11.77;88.85;99362.76;1747989;81;21430;-37
2022/04/15 06:25:46;;;;;;;30.60;21.25;;;;;;;11.84;86.35;99359.27;1748098;81;20991;-36
2022/04/15 06:28:12;;;;;;;27.80;20.37;;;;;;;11.81;88.26;99358.99;1747981;81;20995;-37
2022/04/15 06:30:39;;;;;;;25.92;18.15;;;;;;;11.80;89.00;99366.50;1748281;82;21472;-36
2022/04/15 06:33:06;;;;;;;28.98;20.00;;;;;;;11.84;87.99;99368.49;1748015;81;21047;-36
2022/04/15 06:35:36;;;;;;;;;;;;;;;11.75;88.05;99375.17;1750564;81;20964;-36
2022/04/15 06:38:02;;;;;;;28.47;19.12;;;;;;;11.63;89.47;99370.63;1747969;81;20113;-36
2022/04/15 06:40:28;;;;;;;27.35;19.37;;;;;;;11.56;89.69;99364.02;1748240;81;21512;-37
2022/04/15 06:42:54;;;;;;;27.73;18.02;;;;;;;11.56;91.61;99366.64;1751870;81;21019;-37
2022/04/15 06:45:20;;;;;;;25.08;17.62;;;;;;;11.58;92.37;99362.13;1761420;81;21548;-37
2022/04/15 06:47:46;;;;;;;23.42;17.45;;;;;;;11.64;90.77;99359.13;1761315;81;21034;-36
2022/04/15 06:50:11;;;;;;;29.60;17.07;;;;;;;11.64;91.49;99363.08;1761252;81;21433;-37
2022/04/15 06:52:37;;;;;;;28.65;16.82;;;;;;;11.66;91.91;99354.61;1761282;81;21030;-37
2022/04/15 06:55:06;;;;;;;23.92;16.50;;;;;;;11.73;89.24;99366.48;1761494;81;21023;-36
2022/04/15 06:57:31;;;;;;;30.80;18.10;;;;;;;11.82;87.65;99365.94;1761306;81;21479;-37
2022/04/15 06:59:58;;;;;;;25.62;17.82;;;;;;;11.82;90.42;99361.98;1761362;81;20968;-37
2022/04/15 07:02:26;;;;;;;36.50;23.60;;;;;;;11.84;90.74;99361.91;1761525;81;20987;-36
2022/04/15 07:04:52;;;;;;;26.73;19.48;;;;;;;11.88;89.48;99361.64;1761361;81;21535;-37
2022/04/15 07:07:18;;;;;;;25.57;17.42;;;;;;;11.90;89.54;99360.27;1761257;81;20987;-36
2022/04/15 07:09:44;;;;;;;28.52;18.00;;;;;;;11.84;90.17;99358.82;1761264;81;20972;-36
2022/04/15 07:12:10;;;;;;;32.08;19.70;;;;;;;11.76;91.08;99359.73;1761457;81;21039;-36
2022/04/15 07:14:36;;;;;;;32.03;20.82;;;;;;;11.75;91.86;99352.78;1761364;81;20952;-37
2022/04/15 07:17:03;;;;;;;27.62;17.77;;;;;;;11.95;91.18;99363.48;1761277;80;21550;-37
2022/04/15 07:19:29;;;;;;;28.40;20.07;;;;;;;12.13;89.27;99367.25;1761520;81;21018;-36
2022/04/15 07:21:55;;;;;;;25.35;18.42;;;;;;;12.12;89.36;99362.46;1761256;81;20983;-36
2022/04/15 07:24:21;;;;;;;33.88;21.05;;;;;;;12.22;89.13;99370.65;1761326;81;20995;-36
2022/04/15 07:26:47;;;;;;;29.98;20.52;;;;;;;12.36;89.60;99371.14;1761171;80;21011;-37
2022/04/15 07:29:13;;;;;;;21.93;16.12;;;;;;;12.48;88.89;99376.98;1761277;81;20995;-36
2022/04/15 07:31:40;;;;;;;27.48;17.87;;;;;;;12.50;86.74;99377.73;1761373;81;21003;-37
2022/04/15 07:34:06;;;;;;;19.32;14.43;;;;;;;12.44;87.28;99376.77;1761581;81;21626;-35
2022/04/15 07:39:07;;;;;;;20.60;15.03;;;;;;;12.40;86.50;99377.91;1761415;81;20991;-37
2022/04/15 07:41:37;;;;;;;25.62;14.78;;;;;;;12.29;87.20;99371.49;1761462;80;20963;-37
2022/04/15 07:44:09;;;;;;;26.52;15.28;;;;;;;12.21;88.16;99379.52;1752615;81;21023;-37
2022/04/15 07:46:38;;;;;;;26.75;16.60;;;;;;;12.21;87.24;99379.52;1747110;81;21031;-37
2022/04/15 07:49:05;;;;;;;19.57;13.08;;;;;;;12.24;87.03;99372.27;1748085;81;21501;-37
2022/04/15 07:51:34;;;;;;;21.37;14.43;;;;;;;12.24;87.17;99379.31;1748361;81;20988;-37
2022/04/15 07:54:00;;;;;;;17.80;12.25;;;;;;;12.26;86.69;99380.06;1747677;81;20980;-37
2022/04/15 07:56:26;;;;;;;17.45;12.60;;;;;;;12.28;86.63;99386.11;1748103;82;21038;-37
2022/04/15 07:58:52;;;;;;;16.75;12.07;;;;;;;12.27;86.31;99388.36;1748037;81;21038;-37
2022/04/15 08:01:19;;;;;;;18.17;12.10;;;;;;;12.39;85.86;99388.10;1748164;81;20984;-37
2022/04/15 08:03:46;;;;;;;18.90;11.93;;;;;;;12.49;85.23;99384.77;1748160;81;20999;-38
2022/04/15 08:06:12;;;;;;;;;;;;;;;12.49;85.13;99388.73;1750745;81;20995;-37
2022/04/15 08:08:38;;;;;;;14.28;9.45;;;;;;;12.42;85.12;99396.64;1748218;82;20116;-36
2022/04/15 08:11:04;;;;;;;13.20;9.75;;;;;;;12.48;85.81;99398.08;1748214;81;21039;-37
2022/04/15 08:13:30;;;;;;;12.55;9.25;;;;;;;12.53;84.46;99395.14;1748030;81;21031;-38
2022/04/15 08:15:56;;;;;;;13.32;8.90;;;;;;;12.52;84.47;99398.27;1748150;81;20991;-37
2022/04/15 08:18:23;;;;;;;13.08;9.80;;;;;;;12.46;83.47;99402.58;1748131;81;21022;-40
2022/04/15 08:20:51;;;;;;;13.22;10.28;;;;;;;12.44;83.16;99404.47;1748188;82;20984;-37
2022/04/15 08:23:18;;;;;;;12.55;10.32;;;;;;;12.35;83.39;99407.66;1748049;81;21026;-39
2022/04/15 08:25:45;;;;;;;12.93;9.15;;;;;;;12.32;83.39;99412.66;1748175;81;20968;-38
2022/04/15 08:28:11;;;;;;;11.30;8.60;;;;;;;12.35;83.98;99411.17;1748399;81;20980;-37
2022/04/15 08:30:38;;;;;;;15.15;9.70;;;;;;;12.39;83.16;99401.28;1748052;81;20972;-39
2022/04/15 08:33:05;;;;;;;13.37;9.53;;;;;;;12.39;82.84;99404.77;1748302;81;20998;-37
2022/04/15 08:35:32;;;;;;;12.63;9.15;;;;;;;12.38;83.57;99404.84;1748293;82;21485;-37
2022/04/15 08:37:58;;;;;;;12.25;8.08;;;;;;;12.33;83.01;99413.02;1748293;81;21093;-37
2022/04/15 08:40:31;;;;;;;10.55;7.92;;;;;;;12.39;82.45;99407.40;1748097;81;21524;-36
2022/04/15 08:42:56;;;;;;;10.08;7.95;;;;;;;12.40;82.11;99403.80;1748812;81;21023;-38
2022/04/15 08:45:22;;;;;;;10.58;8.60;;;;;;;12.47;81.78;99405.60;1761395;81;20995;-37
2022/04/15 08:47:49;;;;;;;11.83;7.97;;;;;;;12.63;81.34;99409.47;1761459;81;21468;-37
2022/04/15 08:50:14;;;;;;;14.45;8.50;;;;;;;12.47;81.82;99410.88;1761555;81;20999;-38
2022/04/15 08:52:41;;;;;;;14.23;8.30;;;;;;;12.50;81.36;99414.66;1761405;80;20988;-38
2022/04/15 08:55:09;;;;;;;7.95;6.28;;;;;;;12.54;81.65;99418.80;1761513;80;20994;-38
2022/04/15 08:57:34;;;;;;;10.68;7.05;;;;;;;12.56;80.97;99417.39;1761542;81;21000;-37
2022/04/15 09:00:00;;;;;;;7.50;6.70;;;;;;;12.47;80.99;99416.99;1761462;81;21903;-38
2022/04/15 09:02:37;;;;;;;8.70;5.85;;;;;;;12.57;80.94;99419.94;1761421;81;21437;-38
2022/04/15 09:05:05;;;;;;;6.83;5.55;;;;;;;12.56;79.97;99418.22;1761533;81;20990;-38
2022/04/15 09:07:34;;;;;;;7.75;5.47;;;;;;;12.54;79.01;99425.39;1761370;81;20995;-37
2022/04/15 09:10:01;;;;;;;8.85;6.65;;;;;;;12.56;79.00;99418.70;1761496;81;21003;-37
2022/04/15 09:12:29;;;;;;;10.50;6.28;;;;;;;12.60;78.59;99418.41;1760335;81;21002;-37
2022/04/15 09:15:00;;;;;;;9.60;6.60;;;;;;;12.65;78.27;99424.25;1759803;81;20959;-38
2022/04/15 09:17:29;;;;;;;8.73;7.42;;;;;;;12.71;79.27;99423.50;1759783;81;21026;-38
2022/04/15 09:20:00;;;;;;;8.55;6.03;;;;;;;12.96;78.47;99414.42;1759621;81;20991;-38
2022/04/15 09:22:26;;;;;;;8.48;6.45;;;;;;;13.00;77.30;99419.88;1758709;81;21626;-38
2022/04/15 09:24:52;;;;;;;4.45;3.92;;;;;;;13.20;76.45;99421.73;1759807;81;20999;-37
2022/04/15 09:27:23;;;;;;;4.30;3.90;;;;;;;13.18;73.96;99424.94;1759759;81;21002;-37
2022/04/15 09:29:52;;;;;;;3.90;3.50;;;;;;;13.20;72.33;99434.45;1759680;81;21496;-36
2022/04/15 09:32:18;;;;;;;5.60;4.33;;;;;;;13.20;72.04;99422.56;1759925;81;21029;-37
2022/04/15 09:34:57;;;;;;;7.22;5.62;;;;;;;13.06;70.99;99423.47;1758121;81;21610;-43
2022/04/15 09:37:31;;;;;;;8.28;5.78;;;;;;;12.87;72.26;99423.77;1759886;81;20994;-36
2022/04/15 09:40:16;;;;;;;7.87;5.17;;;;;;;13.12;72.62;99415.63;1759634;81;20994;-38
2022/04/15 09:42:49;;;;;;;9.40;5.62;;;;;;;13.55;72.59;99416.84;1759765;81;20995;-37
2022/04/15 09:45:34;;;;;;;9.48;5.83;;;;;;;14.15;71.83;99413.30;1751950;81;21059;-37
2022/04/15 09:48:00;;;;;;;5.20;4.70;;;;;;;14.31;69.04;99419.23;1750760;82;21011;-38
2022/04/15 09:50:35;;;;;;;8.33;4.72;;;;;;;14.65;67.78;99420.06;1751729;81;21079;-40
2022/04/15 09:53:16;;;;;;;9.88;4.37;;;;;;;14.96;65.35;99418.73;1752007;82;20984;-37
2022/04/15 09:55:44;;;;;;;9.50;4.95;;;;;;;15.36;65.66;99420.66;1733851;81;21034;-38
2022/04/15 09:58:14;;;;;;;8.33;4.50;;;;;;;15.46;64.59;99418.66;1753033;81;21040;-40
2022/04/15 10:00:43;;;;;;;7.15;4.35;;;;;;;15.44;63.39;99420.09;1752743;81;21019;-39
2022/04/15 10:03:12;;;;;;;9.43;4.65;;;;;;;15.33;63.04;99408.98;1752728;81;21001;-39
2022/04/15 10:05:38;;;;;;;5.83;4.40;;;;;;;15.13;62.28;99412.22;1752346;81;21576;-39
2022/04/15 10:08:06;;;;;;;6.87;5.70;;;;;;;15.31;63.96;99409.55;1753526;81;21043;-38
2022/04/15 10:10:33;;;;;;;6.85;4.58;;;;;;;15.58;63.60;99398.37;1782270;80;21917;-38
2022/04/15 10:13:01;;;;;;;5.55;3.92;;;;;;;16.33;63.39;99403.79;1784822;80;20999;-40
2022/04/15 10:15:29;;;;;;;9.35;3.95;;;;;;;17.32;60.47;99392.86;1785005;80;21532;-37
2022/04/15 10:17:56;;;;;;;8.10;3.47;;;;;;;17.94;58.06;99399.30;1784879;80;21001;-39
2022/04/15 10:20:22;;;;;;;3.72;3.37;;;;;;;18.44;55.39;99401.27;1784949;80;20998;-37
2022/04/15 10:22:50;;;;;;;4.53;3.80;;;;;;;18.96;51.19;99392.26;1783627;80;21037;-36
2022/04/15 10:25:16;;;;;;;3.80;3.20;;;;;;;19.70;52.72;99390.09;1784092;80;21511;-40
2022/04/15 10:27:42;;;;;;;2.75;2.55;;;;;;;19.64;50.39;99384.00;1784540;80;21097;-38
2022/04/15 10:30:21;;;;;;;3.12;2.80;;;;;;;19.24;46.73;99387.12;1784716;80;21029;-35
2022/04/15 10:32:54;;;;;;;3.72;2.50;;;;;;;20.34;49.68;99385.97;1784989;80;20958;-39
2022/04/15 10:35:30;;;;;;;3.25;2.62;;;;;;;19.91;45.30;99376.14;1784486;80;21060;-38
2022/04/15 10:38:11;;;;;;;3.80;3.17;;;;;;;19.77;47.38;99372.56;1785052;80;21005;-37
2022/04/15 10:40:43;;;;;;;4.03;2.70;;;;;;;19.83;47.85;99373.35;1784305;80;21072;-39
2022/04/15 10:43:24;;;;;;;2.58;2.37;;;;;;;19.81;47.71;99379.33;1762787;80;21003;-39
2022/04/15 10:45:54;;;;;;;2.25;2.05;;;;;;;20.00;45.83;99363.77;1744276;81;21066;-37
2022/04/15 10:48:32;;;;;;;6.58;2.70;;;;;;;20.66;45.77;99368.20;1737818;82;20992;-39
2022/04/15 10:51:18;;;;;;;6.75;2.70;;;;;;;20.95;45.15;99357.86;1742062;82;21035;-37
2022/04/15 10:53:45;;;;;;;3.92;1.90;;;;;;;21.06;43.78;99356.81;1744111;82;21512;-40
2022/04/15 10:56:13;;;;;;;5.75;2.10;;;;;;;22.02;42.32;99364.23;1742950;82;21054;-39
2022/04/15 11:01:32;;;;;;;3.35;2.45;;;;;;;22.43;39.59;99357.83;1744221;82;21018;-40
2022/04/15 11:04:08;;;;;;;5.80;2.10;;;;;;;22.02;39.13;99357.53;1716684;82;20999;-40
2022/04/15 11:06:33;;;;;;;3.55;2.30;;;;;;;22.89;39.38;99350.30;1743914;82;21523;-40
2022/04/15 11:09:15;;;;;;;2.25;2.05;;;;;;;22.78;38.09;99342.56;1743592;82;21101;-40
2022/04/15 11:11:45;;;;;;;4.08;2.08;;;;;;;21.92;37.09;99356.31;1744221;81;21090;-38
2022/04/15 11:14:16;;;;;;;3.72;2.47;;;;;;;21.54;38.36;99348.97;1744615;82;21551;-38
2022/04/15 11:16:41;;;;;;;4.22;2.30;;;;;;;21.54;38.71;99350.78;1743357;81;21018;-38
2022/04/15 11:19:08;;;;;;;3.37;2.20;;;;;;;21.75;37.73;99353.98;1744697;82;21031;-36
2022/04/15 11:21:40;;;;;;;3.80;2.08;;;;;;;22.40;37.55;99356.80;1744467;81;21053;-39
2022/04/15 11:24:11;;;;;;;3.52;2.30;;;;;;;23.53;36.21;99350.61;1744257;81;21094;-37
2022/04/15 11:26:43;;;;;;;4.05;2.40;;;;;;;23.54;35.36;99347.45;1743939;81;21049;-37
2022/04/15 11:29:11;;;;;;;3.08;1.80;;;;;;;24.22;33.18;99348.08;1744871;81;21003;-38
2022/04/15 11:31:40;;;;;;;2.30;2.10;;;;;;;24.44;31.66;99344.65;1744692;81;21507;-39